Flight Track Log - Related Links

Times and Time Zones

All times are in EDT time to prevent confusion due to time zone crossing. See the CCA1136 flight status page for this flight to view local times or setup timezone preferences in your user account.


Time Position Orientation Groundspeed Altitude Reporting Facility
EDT Latitude Longitude Course Direction KTS MPH feet Rate Location/Type
Wed 10:42:00 AM 40.5449 110.3284 93° East  Level Estimated
Wed 10:43:00 AM 40.5397 110.4388 94° East  Level Estimated
Wed 10:44:00 AM 40.5343 110.5493 94° East  Level Estimated
Wed 10:45:00 AM 40.5289 110.6597 94° East  Level Estimated
Wed 10:46:00 AM 40.5233 110.7701 94° East  Level Estimated
Wed 10:47:00 AM 40.5177 110.8804 94° East  Level Estimated
Wed 10:48:00 AM 40.5119 110.9908 94° East  Level Estimated
Wed 10:49:00 AM 40.5061 111.1012 94° East  Level Estimated
Wed 10:50:00 AM 40.5001 111.2115 94° East  Level Estimated
Wed 10:51:00 AM 40.4940 111.3218 94° East  Level Estimated
Wed 10:52:00 AM 40.4878 111.4321 94° East  Level Estimated
Wed 10:53:00 AM 40.4815 111.5423 94° East  Level Estimated
Wed 10:54:00 AM 40.4751 111.6525 94° East  Level Estimated
Wed 10:55:00 AM 40.4686 111.7628 94° East  Level Estimated
Wed 10:56:00 AM 40.4620 111.8730 94° East  Level Estimated
Wed 10:57:00 AM 40.4553 111.9831 95° East  Level Estimated
Wed 10:58:00 AM 40.4485 112.0933 95° East  Level Estimated
Wed 10:59:00 AM 40.4416 112.2034 95° East  Level Estimated
Wed 11:00:00 AM 40.4346 112.3135 95° East  Level Estimated
Wed 11:01:00 AM 40.4275 112.4236 95° East  Level Estimated
Wed 11:02:00 AM 40.4202 112.5337 95° East  Level Estimated
Wed 11:03:00 AM 40.4129 112.6437 95° East  Level Estimated
Wed 11:04:00 AM 40.4055 112.7537 95° East  Level Estimated
Wed 11:05:00 AM 40.3979 112.8637 95° East  Level Estimated
Wed 11:06:00 AM 40.3903 112.9737 95° East  Level Estimated
Wed 11:07:00 AM 40.3825 113.0836 95° East  Level Estimated
Wed 11:08:00 AM 40.3747 113.1935 95° East  Level Estimated
Wed 11:09:00 AM 40.3667 113.3034 95° East  Level Estimated
Wed 11:10:00 AM 40.3587 113.4133 95° East  Level Estimated
Wed 11:11:00 AM 40.3505 113.5231 96° East  Level Estimated
Wed 11:12:00 AM 40.3422 113.6329 96° East  Level Estimated
Wed 11:13:00 AM 40.3339 113.7427 96° East  Level Estimated
Wed 11:14:00 AM 40.3254 113.8524 96° East  Level Estimated
Wed 11:15:00 AM 40.3168 113.9622 96° East  Level Estimated
Wed 11:16:00 AM 40.3081 114.0719 96° East  Level Estimated
Wed 11:17:00 AM 40.2993 114.1815 96° East  Level Estimated
Wed 11:18:00 AM 40.2904 114.2912 96° East  Level Estimated
Wed 11:19:00 AM 40.2814 114.4008 96° East  Level Estimated
Wed 11:20:00 AM 40.2723 114.5104 96° East  Level Estimated
Wed 11:21:00 AM 40.2631 114.6199 96° East  Level Estimated
Wed 11:22:00 AM 40.2538 114.7294 96° East  Level Estimated
Wed 11:23:00 AM 40.2444 114.8389 96° East  Level Estimated
Wed 11:24:00 AM 40.2349 114.9484 96° East  Level Estimated
Wed 11:25:00 AM 40.2253 115.0578 97° East  Level Estimated
Wed 11:26:00 AM 40.2156 115.1672 97° East  Level Estimated
Wed 11:27:00 AM 40.2058 115.2766 97° East  Level Estimated
Wed 11:28:00 AM 40.1959 115.3859 97° East  Level Estimated
Wed 11:29:00 AM 40.1858 115.4952 97° East  Level Estimated
Wed 11:30:00 AM 40.1757 115.6045 97° East  Level Estimated
Wed 11:31:00 AM 40.1655 115.7137 97° East  Level Estimated
Wed 11:32:00 AM 40.1551 115.8229 97° East  Level Estimated
Wed 11:33:00 AM 40.1447 115.9321 97° East  Level Estimated
Wed 11:34:00 AM 40.1342 116.0412 97° East  Level Estimated
Wed 11:35:00 AM 40.1235 116.1503 97° East  Level Estimated
Wed 11:36:00 AM 40.1128 116.2594 97° East  Level Estimated
Wed 11:37:00 AM 40.1019 116.3684 97° East  Level Estimated
Wed 11:38:00 AM 40.0910 116.4774 97° East  Level Estimated
Wed 11:39:00 AM 40.0801 116.5846 98° East  Level Estimated
Wed 11:40:00 AM 40.0801 116.5846 288° West  Level Estimated
Wed 11:41:00 AM 40.0801 116.5846 288° West  Level Estimated
Wed 11:42:00 AM 40.0801 116.5846 288° West  Level Estimated
Wed 11:43:00 AM 40.0801 116.5846 288° West  Level Estimated

Login

Don't have an account? Register now (free) for customized features, flight alerts, and more!